Wallsend, United Kingdom
Current Conditions -  °F | °C
As of 6:20 PM on Sunday 21 Dec 2014 (Local Time) from EGNT Reporting Station
Broken Clouds Broken Clouds  
Wind Chill: 55°   Ceiling: 1900
Heat Index: 55°   Visibility: 6mi
Dew Point: 48°   Wind: 31mph
Humidity: 77%   Direction: 260°W
Pressure: 29.68"   Gusts: 48mph
Location:  54.99°N, 1.53°W
Report Text: EGNT 211820Z 26027G42KT 9999 BKN019 13/09 Q1005
Loading
Personal Weather Stations






























Interactive Weather Map New forecast layout! Learn more

10-Day Weather Forecast

Advertisements
Track Severe Weather on mobile